Carlson, Washington
Current Conditions -  °F | °C
As of 8:13 AM on Saturday 22 Nov 2014 (Local Time) from KGRF Reporting Station
Light Rain Light Rain  
Wind Chill: 41°   Ceiling: 2900
Heat Index: 45°   Visibility: 4mi
Dew Point: 45°   Wind: 6mph
Humidity: 100%   Direction: 200°SSW
Pressure: 29.74"   Gusts: NA
Location:  46.6944°N, 122.245°W
Report Text: KGRF 221613Z AUTO 20005KT 4SM -RA BR FEW013 OVC029 07/07 A2974 RMK AO2
Loading
Personal Weather Stations






























Interactive Weather Map New forecast layout! Learn more

10-Day Weather Forecast

Advertisements
Track Severe Weather on mobile